Soest, Netherlands
Current Conditions -  °F | °C
As of 6:25 PM on Wednesday 26 Nov 2014 (Local Time) from EHAM Reporting Station
Overcast Overcast  
Wind Chill: 37°   Ceiling: 1600
Heat Index: 43°   Visibility: 6mi
Dew Point: 37°   Wind: 10mph
Humidity: 81%   Direction: 120°ESE
Pressure: 29.88"   Gusts: NA
Location:  52.17°N, 5.29°E
Report Text: EHAM 261725Z 12009KT 9999 OVC016 06/03 Q1012 BECMG BKN012 TEMPO6000 -RADZ
Loading
Personal Weather Stations






























Interactive Weather Map New forecast layout! Learn more

10-Day Weather Forecast

Advertisements
Track Severe Weather on mobile